Es ist keine erhöhte Aufmerksamkeit aufgrund des Wetters notwendig.    Es gibt keine Warnungen.

Meine Webcam more information My webcam


Donnerradar more information blitzortung!


Regenradar more information rain snow radar



METAR-Meldungen aus der Umgebung

   
EDDH - Hamburg
Aktualisierung: 11-07-2020 02:50
leicht bewölkt  
leicht bewölkt  
   Wind: WSW 11.1 km/h
Wind: WSW 11.1 km/h
Temperatur: 10°C
Gefühlt: 8°C
Taupunkt: 8°C
Luftfeuchte: 88%
Luftdruck: 1018 hPa
Bewölkt: leicht bewölkt
Sichtbarkeit: More than 10 km
Bewölkung: leicht bewölkt 3100 ft
EDDH 110050Z 24006KT 9999 FEW031 10/08 Q1018 NOSIG
EDHL - Lübeck
Aktualisierung: 10-07-2020 20:50
Nicht aktuell
leicht bewölkt  
leicht bewölkt  
   Wind: SW 11.1 km/h
Wind: SW 11.1 km/h
Temperatur: 15°C
Taupunkt: 10°C
Luftfeuchte: 72%
Luftdruck: 1014 hPa
Bewölkt: leicht bewölkt
Sichtbarkeit: More than 10 km
Bewölkung: leicht bewölkt 2200 ft
EDHL 101850Z 23006KT 200V260 9999 FEW022 15/10 Q1014
EHBK - Amsterdam
Aktualisierung: 11-07-2020 02:55
Klar  
Klar  
   Wind: variiert 3.7 km/h
Wind: variiert 3.7 km/h
Temperatur: 10°C
Taupunkt: 9°C
Luftfeuchte: 94%
Luftdruck: 1021 hPa
Bewölkt: Klar
Sichtbarkeit: More than 10 km
Bewölkung: Klar
EHBK 110055Z AUTO VRB02KT 9999 NCD 10/09 Q1021
EBCV - Mons/Bergen
Aktualisierung: 11-07-2020 02:55
Klar  
Klar  
   Wind: variiert 1.9 km/h
Wind: variiert 1.9 km/h
Temperatur: 10°C
Taupunkt: 9°C
Luftfeuchte: 94%
Luftdruck: 1022 hPa
Bewölkt: Klar
Sichtbarkeit: More than 10 km
Bewölkung: Klar
EBCV 110055Z AUTO VRB01KT 9999 NCD 10/09 Q1022 BLU
ELLX - Luxemburg
Aktualisierung: 11-07-2020 02:50
Klar  
Klar  
   Wind: NNW 13 km/h
Wind: NNW 13 km/h
Temperatur: 12°C
Taupunkt: 9°C
Luftfeuchte: 82%
Luftdruck: 1021 hPa
Bewölkt: Klar
Sichtbarkeit: More than 10 km
Bewölkung: Klar
ELLX 110050Z AUTO 33007KT 9999 NCD 12/09 Q1021 NOSIG
EBOS - Oostende
Aktualisierung: 11-07-2020 02:50
leicht bewölkt  
leicht bewölkt  
   Wind: SSW 3.7 km/h
Wind: SSW 3.7 km/h
Temperatur: 9°C
Taupunkt: 8°C
Luftfeuchte: 94%
Luftdruck: 1022 hPa
Bewölkt: leicht bewölkt
Sichtbarkeit: More than 10 km
Bewölkung: leicht bewölkt 2500 ft
EBOS 110050Z 20002KT 9999 FEW025 09/08 Q1022 NOSIG

Script entwickelt von  Saratoga-weather.org Angepasst für das Template von  Weerstation Leuven

Sie finden meine Wetter-Infos auch auf:

Weather Underground

Germany Weather Network

AWEKAS

WeatherlinkIP

Von mir verwendete Ausrüstung:

Wetterstation
Davis VP2

Wetterprogramm
Weather Display

WetterComputer
RaspberryPi

Anbieter
1und1

Davis VP2

Weather Display

RaspberryPi

1und1